Data for 09/08/2005

Time Sea-Level Adjusted Pressure Absolute Pressure Temperature Relative Humidity Dew Point   
(mb) (inHg) (mb) (inHg) (C) (F) (%) (C) (F)
00:05 1021 30.15 850 25.1 14.9 58.8 35 -0.2 31.7
00:10 1021 30.15 850 25.1 15.2 59.3 35 -0 31.9
00:15 1021 30.15 850 25.1 15.4 59.7 35 -0.1 31.9
00:20 1021 30.15 850 25.1 15.5 60 34 -0.3 31.5
00:25 1021 30.15 850 25.1 15.7 60.2 33 -0.3 31.4
00:30 1021 30.15 850 25.1 15.3 59.5 37 0.7 33.3
00:35 1021 30.15 850 25.1 15 59.1 35 -0 31.9
00:40 1021 30.15 850 25.1 15 58.9 35 -0.5 31.2
00:45 1021 30.15 850 25.1 15.5 59.9 34 -0.2 31.6
00:50 1020 30.12 850 25.1 15.6 60 35 0.2 32.4
00:55 1021 30.15 850 25.1 15.3 59.6 39 1.6 35
01:00 1021 30.15 850 25.1 15.3 59.5 36 0.5 32.9
01:05 1021 30.15 850 25.1 14.8 58.6 45 3 37.5
01:10 1021 30.15 850 25.1 14.7 58.5 38 0.6 33.2
01:15 1021 30.15 850 25.1 14.6 58.2 39 1 33.8
01:20 1021 30.15 850 25.1 14.4 58 42 1.6 34.9
01:25 1021 30.15 850 25.1 14.4 58 39 0.9 33.6
01:30 1021 30.15 850 25.1 14.5 58 38 0.5 32.9
01:35 1021 30.15 850 25.1 14.4 57.9 38 0.5 32.9
01:40 1021 30.15 850 25.1 14.1 57.3 40 0.6 33.1
01:45 1021 30.15 850 25.1 13.7 56.7 40 0.5 32.9
01:50 1021 30.15 850 25.1 13.6 56.4 42 0.9 33.7
01:55 1021 30.15 850 25.1 13.4 56 41 0.4 32.6
02:00 1021 30.15 850 25.1 13.8 56.8 39 0 32.1
02:05 1021 30.15 850 25.1 14.1 57.4 38 0.1 32.1
02:10 1021 30.15 850 25.1 14.1 57.4 38 0.1 32.2
02:15 1021 30.15 850 25.1 14 57.2 39 0.3 32.5
02:20 1021 30.15 850 25.1 13.5 56.4 41 0.5 32.8
02:25 1021 30.15 850 25.1 13.2 55.7 42 0.6 33.1
02:30 1021 30.15 850 25.1 12.9 55.3 45 1.2 34.2
02:35 1021 30.15 850 25.1 12.7 54.8 42 0.2 32.3
02:40 1021 30.15 850 25.1 13.2 55.7 40 0.1 32.2
02:45 1021 30.15 850 25.1 13.4 56.1 39 -0.2 31.6
02:50 1021 30.15 850 25.1 13.8 56.8 39 0.2 32.3
02:55 1021 30.15 850 25.1 13.7 56.6 39 0.1 32.2
03:00 1021 30.15 850 25.1 13.6 56.5 41 0.6 33.1
03:05 1021 30.15 850 25.1 13.2 55.7 41 0.3 32.5
03:10 1021 30.15 850 25.1 13 55.4 42 0.5 32.9
03:15 1021 30.15 850 25.1 13 55.5 39 -0.4 31.3
03:20 1021 30.15 850 25.1 13.2 55.8 41 0.2 32.4
03:25 1021 30.15 850 25.1 13.4 56.1 40 0 32
03:30 1021 30.15 850 25.1 13.5 56.3 37 -0.6 30.9
03:35 1020 30.12 850 25.1 14.1 57.4 36 -0.5 31.1
03:40 1020 30.12 850 25.1 14.2 57.5 38 0 32
03:45 1020 30.12 850 25.1 13.8 56.9 38 -0.3 31.5
03:50 1020 30.12 850 25.1 13.9 57 39 0.2 32.4
03:55 1020 30.12 850 25.1 13.8 56.8 38 -0.2 31.6
04:00 1020 30.12 850 25.1 13.7 56.7 40 0.5 32.8
04:05 1020 30.12 849 25.07 13.3 55.9 39 -0.2 31.7
04:10 1020 30.12 849 25.07 13.7 56.6 39 0.1 32.1
04:15 1020 30.12 849 25.07 13.6 56.5 39 0.2 32.3
04:20 1020 30.12 850 25.1 13.5 56.3 40 0.3 32.5
04:25 1020 30.12 850 25.1 13.5 56.4 39 -0.1 31.9
04:30 1020 30.12 850 25.1 13.5 56.3 40 0.1 32.2
04:35 1020 30.12 850 25.1 13.2 55.8 41 0.3 32.6
04:40 1020 30.12 849 25.07 13.1 55.5 41 0.1 32.1
04:45 1020 30.12 849 25.07 13.3 55.9 39 -0.3 31.5
04:50 1020 30.12 849 25.07 13.5 56.3 39 0 32
04:55 1020 30.12 849 25.07 13.4 56.1 40 0 32
05:00 1020 30.12 849 25.07 13.1 55.5 42 0.5 32.9
05:05 1020 30.12 849 25.07 12.6 54.7 43 0.4 32.7
05:10 1020 30.12 849 25.07 12.3 54.1 43 0.3 32.5
05:15 1020 30.12 849 25.07 12.3 54.2 43 0.3 32.5
05:20 1020 30.12 849 25.07 12.5 54.5 42 -0.1 31.8
05:25 1020 30.12 849 25.07 13 55.5 40 -0.2 31.6
05:30 1020 30.12 849 25.07 13.4 56.1 39 -0.3 31.5
05:35 1020 30.12 849 25.07 13.5 56.2 39 -0.1 31.9
05:40 1020 30.12 849 25.07 13.4 56.1 40 -0 32
05:45 1020 30.12 849 25.07 13.3 56 40 0 32
05:50 1020 30.12 849 25.07 13.7 56.7 38 -0.3 31.5
05:55 1020 30.12 849 25.07 13.5 56.3 41 0.4 32.8
06:00 1020 30.12 849 25.07 13.2 55.7 39 -0.3 31.5
06:05 1020 30.12 849 25.07 13.2 55.7 41 0.2 32.3
06:10 1020 30.12 849 25.07 12.9 55.3 41 0 32.1
06:15 1020 30.12 849 25.07 12.9 55.2 41 -0 31.9
06:20 1020 30.12 849 25.07 12.7 54.9 43 0.5 33
06:25 1020 30.12 849 25.07 12.2 54 44 0.5 32.9
06:30 1020 30.12 849 25.07 12.1 53.8 43 -0.1 31.9
06:35 1020 30.12 849 25.07 12.5 54.5 43 0.2 32.4
06:40 1020 30.12 849 25.07 12.4 54.4 44 0.4 32.8
06:45 1020 30.12 849 25.07 12.2 54 44 0.5 32.9
06:50 1020 30.12 849 25.07 12.1 53.7 43 -0 31.9
06:55 1020 30.12 849 25.07 12.5 54.5 42 0 32
07:00 1020 30.12 849 25.07 12.5 54.5 43 0.5 32.8
07:05 1020 30.12 849 25.07 12.2 53.9 44 0.4 32.7
07:10 1020 30.12 849 25.07 12.1 53.7 45 0.4 32.7
07:15 1020 30.12 849 25.07 12.1 53.7 45 0.4 32.8
07:20 1020 30.12 849 25.07 11.9 53.4 45 0.5 32.8
07:25 1020 30.12 849 25.07 12.3 54.1 44 0.3 32.5
07:30 1020 30.12 849 25.07 12.4 54.3 43 0.2 32.3
07:35 1020 30.12 849 25.07 12.5 54.4 43 0.1 32.3
07:40 1020 30.12 849 25.07 12.5 54.5 43 0.2 32.4
07:45 1020 30.12 849 25.07 12.4 54.3 44 0.6 33
07:50 1020 30.12 849 25.07 12.4 54.2 43 0.2 32.3
07:55 1020 30.12 849 25.07 12.6 54.8 43 0.6 33.1
08:00 1020 30.12 849 25.07 12.6 54.6 45 1 33.7
08:05 1020 30.12 849 25.07 12.4 54.4 46 1.1 34
08:10 1020 30.12 849 25.07 12.6 54.6 46 1.2 34.1
08:15 1020 30.12 849 25.07 12.9 55.1 44 1.1 34
08:20 1020 30.12 849 25.07 13.1 55.6 44 1.3 34.3
08:25 1020 30.12 849 25.07 13.3 56 43 1.2 34.1
08:30 1020 30.12 849 25.07 13.6 56.4 42 1 33.8
08:35 1020 30.12 849 25.07 13.8 56.8 43 1.4 34.5
08:40 1020 30.12 849 25.07 14.1 57.3 41 0.9 33.7
08:45 1020 30.12 849 25.07 14.7 58.5 38 0.8 33.4
08:50 1020 30.12 849 25.07 15.3 59.5 39 1.5 34.7
08:55 1020 30.12 849 25.07 16.2 61.2 37 1.7 35.1
09:00 1020 30.12 850 25.1 16.6 61.9 37 2 35.6
09:05 1020 30.12 850 25.1 16.9 62.4 37 2.1 35.8
09:10 1020 30.12 850 25.1 15.8 60.5 42 2.9 37.2
09:15 1020 30.12 850 25.1 15.8 60.5 36 1 33.9
09:20 1020 30.12 850 25.1 16.3 61.3 35 1.1 33.9
09:25 1020 30.12 850 25.1 15.8 60.4 35 0.6 33
09:30 1020 30.12 850 25.1 15.8 60.4 36 0.7 33.3
09:35 1020 30.12 850 25.1 16 60.7 35 0.7 33.3
09:40 1020 30.12 850 25.1 16.4 61.5 34 0.8 33.4
09:45 1020 30.12 849 25.07 16.5 61.7 35 1.2 34.1
09:50 1020 30.12 849 25.07 16.5 61.7 35 1 33.8
09:55 1020 30.12 849 25.07 16.8 62.2 33 0.6 33
10:00 1020 30.12 849 25.07 17.3 63.1 33 1.1 34
10:05 1020 30.12 849 25.07 17.9 64.2 31 0.8 33.5
10:10 1020 30.12 849 25.07 18 64.5 33 1.5 34.7
10:15 1020 30.12 849 25.07 18.8 65.8 31 1.6 34.9
10:20 1020 30.12 849 25.07 19.8 67.6 29 1.4 34.5
10:25 1020 30.12 849 25.07 20.2 68.4 28 1.3 34.3
10:30 1020 30.12 849 25.07 20.1 68.2 29 1.5 34.7
10:35 1020 30.12 849 25.07 19.8 67.7 30 1.7 35.1
10:40 1020 30.12 849 25.07 20.6 69.1 28 1.7 35
10:45 1020 30.12 849 25.07 20.8 69.5 29 2.2 35.9
10:50 1020 30.12 849 25.07 20.5 68.8 29 2.1 35.8
10:55 1019 30.09 849 25.07 20.6 69 27 1.3 34.4
11:00 1019 30.09 849 25.07 21.2 70.2 28 2.1 35.8
11:05 1019 30.09 849 25.07 20.9 69.7 28 1.7 35.1
11:10 1019 30.09 849 25.07 21.8 71.2 27 2.2 36
11:15 1019 30.09 848 25.04 22.4 72.2 27 2.5 36.4
11:20 1019 30.09 848 25.04 22.6 72.6 25 2 35.6
11:25 1019 30.09 848 25.04 22 71.6 27 2.1 35.8
11:30 1019 30.09 848 25.04 22.6 72.6 26 2.5 36.4
11:35 1019 30.09 848 25.04 22.9 73.2 25 1.9 35.4
11:40 1019 30.09 848 25.04 23 73.3 24 1.5 34.7
11:45 1019 30.09 848 25.04 22.7 72.9 25 1.7 35
11:50 1019 30.09 848 25.04 23.3 74 24 1.6 34.9
11:55 1019 30.09 848 25.04 24 75.1 23 1.9 35.4
12:00 1019 30.09 848 25.04 24.4 75.8 22 1.6 34.8
12:05 1019 30.09 848 25.04 24.7 76.5 22 1.9 35.4
12:10 1019 30.09 848 25.04 24.9 76.8 21 1.6 35
12:15 1019 30.09 848 25.04 24.9 76.9 21 1.2 34.2
12:20 1019 30.09 848 25.04 25.3 77.6 20 1 33.7
12:25 1018 30.06 848 25.04 25.3 77.6 21 2 35.5
12:30 1018 30.06 848 25.04 25 76.9 21 1.2 34.2
12:35 1018 30.06 848 25.04 25.7 78.3 19 0.7 33.3
12:40 1018 30.06 847 25.01 26.1 79 20 1.5 34.7
12:45 1018 30.06 847 25.01 25.9 78.6 20 1.5 34.6
12:50 1018 30.06 847 25.01 26.1 79 20 1.4 34.6
12:55 1018 30.06 847 25.01 26.8 80.2 19 1.6 34.9
13:00 1018 30.06 847 25.01 26.9 80.5 18 0.8 33.5
13:05 1018 30.06 847 25.01 26.5 79.7 19 1.1 34.1
13:10 1018 30.06 847 25.01 26.9 80.4 19 1.3 34.4
13:15 1018 30.06 847 25.01 27.1 80.9 18 1.2 34.1
13:20 1018 30.06 847 25.01 27 80.7 18 1.1 34
13:25 1017 30.03 847 25.01 26.9 80.5 18 1.1 34
13:30 1017 30.03 847 25.01 27.2 81 19 1.6 34.8
13:35 1017 30.03 846 24.98 27.9 82.3 18 1.4 34.5
13:40 1017 30.03 846 24.98 28 82.3 17 1.1 34.1
13:45 1017 30.03 846 24.98 27.8 82 18 1.3 34.3
13:50 1017 30.03 846 24.98 28.1 82.5 17 1.1 34
13:55 1017 30.03 846 24.98 28.4 83 17 1.7 35
14:00 1017 30.03 846 24.98 29 84.2 16 0.6 33.1
14:05 1017 30.03 846 24.98 28.7 83.6 16 0.7 33.2
14:10 1017 30.03 846 24.98 27.8 82 16 -0.1 31.9
14:15 1017 30.03 846 24.98 28.6 83.5 15 -0.6 30.9
14:20 1017 30.03 846 24.98 29.7 85.5 15 0.5 33
14:25 1016 30 846 24.98 29.9 85.8 14 -0.1 31.9
14:30 1016 30 846 24.98 29.2 84.5 15 -0.2 31.7
14:35 1016 30 845 24.95 29.3 84.7 14 -0.3 31.5
14:40 1016 30 845 24.95 29.8 85.7 14 -0.1 31.9
14:45 1016 30 845 24.95 29.8 85.7 15 0.3 32.6
14:50 1016 30 845 24.95 30.2 86.4 13 -1 30.1
14:55 1016 30 845 24.95 30.4 86.8 13 -0.8 30.6
15:00 1016 30 845 24.95 30.8 87.4 13 -0.7 30.8
15:05 1016 30 845 24.95 30.7 87.3 12 -1.8 28.7
15:10 1016 30 845 24.95 30.8 87.5 12 -1.3 29.7
15:15 1015 29.97 845 24.95 30.8 87.4 12 -1.3 29.7
15:20 1015 29.97 845 24.95 30 86 13 -1.5 29.3
15:25 1015 29.97 844 24.92 29.5 85.1 13 -1.4 29.4
15:30 1015 29.97 844 24.92 29.7 85.5 12 -2.6 27.4
15:35 1015 29.97 844 24.92 29.4 85 12 -2.8 27
15:40 1015 29.97 844 24.92 29.8 85.6 12 -2.3 27.8
15:45 1015 29.97 844 24.92 30.6 87.2 12 -1.6 29.2
15:50 1015 29.97 844 24.92 30.8 87.5 12 -1.9 28.6
15:55 1015 29.97 844 24.92 30.6 87.1 11 -2.5 27.5
16:00 1015 29.97 844 24.92 30.5 86.9 12 -2.3 27.9
16:05 1015 29.97 844 24.92 30.1 86.1 13 -1.3 29.6
16:10 1014 29.94 844 24.92 30.2 86.4 12 -1.5 29.3
16:15 1014 29.94 844 24.92 30.2 86.3 12 -1.7 29
16:20 1014 29.94 843 24.89 29.7 85.5 13 -1.8 28.8
16:25 1014 29.94 843 24.89 29 84.1 13 -1.9 28.5
16:30 1014 29.94 843 24.89 28.6 83.5 14 -1.7 29
16:35 1014 29.94 843 24.89 29.2 84.6 13 -2.1 28.2
16:40 1014 29.94 843 24.89 29.1 84.4 13 -2 28.4
16:45 1014 29.94 843 24.89 28.6 83.5 13 -1.8 28.7
16:50 1014 29.94 843 24.89 28.6 83.5 13 -1.9 28.6
16:55 1014 29.94 843 24.89 29 84.1 13 -2.1 28.2
17:00 1014 29.94 843 24.89 28.9 83.9 13 -2.3 27.9
17:05 1014 29.94 843 24.89 28.9 84 13 -2 28.5
17:10 1014 29.94 843 24.89 28.9 84 13 -1.9 28.5
17:15 1014 29.94 843 24.89 28.9 84 12 -2.5 27.5
17:20 1014 29.94 843 24.89 28.9 83.9 12 -2.7 27.1
17:25 1014 29.94 843 24.89 28.9 84.1 12 -3.1 26.5
17:30 1014 29.94 843 24.89 28.9 84.1 12 -3.1 26.4
17:35 1014 29.94 843 24.89 29.2 84.5 12 -3.4 25.9
17:40 1014 29.94 843 24.89 29 84.2 12 -3.4 25.9
17:45 1013 29.91 843 24.89 29.2 84.6 12 -2.9 26.7
17:50 1013 29.91 843 24.89 29.1 84.3 12 -3 26.6
17:55 1013 29.91 843 24.89 28.7 83.7 12 -3.7 25.3
18:00 1013 29.91 843 24.89 28.8 83.8 12 -3.3 26.1
18:05 1013 29.91 842 24.86 29.2 84.5 11 -3.5 25.8
18:10 1013 29.91 842 24.86 29.7 85.5 11 -3.7 25.3
18:15 1013 29.91 842 24.86 29.9 85.8 11 -3.6 25.6
18:20 1013 29.91 842 24.86 29.3 84.7 12 -3 26.6
18:25 1013 29.91 842 24.86 28.7 83.6 12 -3.3 26
18:30 1013 29.91 842 24.86 28.3 82.9 12 -3.1 26.4
18:35 1013 29.91 842 24.86 28.2 82.7 13 -2.9 26.8
18:40 1013 29.91 842 24.86 28 82.4 14 -2.1 28.2
18:45 1013 29.91 842 24.86 27.8 82 15 -1.2 29.8
18:50 1013 29.91 842 24.86 27.7 81.9 15 -1.4 29.5
18:55 1013 29.91 842 24.86 27.7 81.9 14 -1.8 28.7
19:00 1013 29.91 842 24.86 27.7 81.8 14 -2 28.5
19:05 1013 29.91 842 24.86 27.5 81.5 17 0.3 32.5
19:10 1013 29.91 842 24.86 27.3 81.1 20 2.7 36.9
19:15 1013 29.91 842 24.86 26.9 80.4 14 -2.5 27.4
19:20 1013 29.91 842 24.86 26.9 80.3 18 0.6 33
19:25 1013 29.91 842 24.86 26.7 80 22 3.2 37.8
19:30 1013 29.91 842 24.86 25.5 77.8 21 1.5 34.7
19:35 1013 29.91 842 24.86 25.1 77.2 26 4.5 40.1
19:40 1013 29.91 842 24.86 24.1 75.4 25 3.3 37.9
19:45 1013 29.91 842 24.86 23.8 74.8 24 2.4 36.3
19:50 1013 29.91 842 24.86 23.4 74.1 28 4 39.3
19:55 1012 29.88 842 24.86 22.7 72.8 27 2.9 37.3
20:00 1012 29.88 842 24.86 22.3 72.1 29 3.5 38.3
20:05 1012 29.88 842 24.86 21.7 71 27 2.1 35.7
20:10 1012 29.88 842 24.86 21.5 70.6 28 2.5 36.5
20:15 1012 29.88 842 24.86 21.3 70.3 26 0.9 33.6
20:20 1013 29.91 842 24.86 20.8 69.5 29 2.4 36.3
20:25 1013 29.91 842 24.86 19.8 67.7 32 3 37.4
20:30 1013 29.91 842 24.86 19.4 67 27 0.1 32.2
20:35 1013 29.91 842 24.86 19.8 67.6 28 0.8 33.4
20:40 1013 29.91 842 24.86 19.9 67.9 23 -1.5 29.3
20:45 1013 29.91 842 24.86 20.9 69.6 24 -0.4 31.2
20:50 1013 29.91 842 24.86 21.1 70 23 -0.7 30.8
20:55 1013 29.91 842 24.86 20.6 69 23 -1.4 29.5
21:00 1013 29.91 842 24.86 20.4 68.7 24 -0.9 30.4
21:05 1013 29.91 842 24.86 20 68.1 23 -1.4 29.5
21:10 1013 29.91 842 24.86 19.9 67.9 24 -1.2 29.8
21:15 1013 29.91 842 24.86 19.8 67.7 24 -1.1 30
21:20 1013 29.91 842 24.86 20 67.9 23 -1.4 29.4
21:25 1013 29.91 842 24.86 19.9 67.8 25 -0.6 30.9
21:30 1013 29.91 842 24.86 20 68.1 24 -0.8 30.6
21:35 1013 29.91 842 24.86 20.1 68.2 24 -0.8 30.5
21:40 1012 29.88 842 24.86 20.2 68.4 24 -1.1 30
21:45 1012 29.88 842 24.86 20.5 68.9 24 -0.8 30.6
21:50 1012 29.88 842 24.86 20.5 69 24 -0.5 31.2
21:55 1012 29.88 842 24.86 20.5 68.9 24 -0.4 31.2
22:00 1012 29.88 842 24.86 20.5 68.9 25 -0.2 31.7
22:05 1012 29.88 842 24.86 20.3 68.5 26 0.2 32.3
22:10 1012 29.88 842 24.86 20.2 68.3 26 0.4 32.8
22:15 1012 29.88 842 24.86 20.1 68.2 26 0.4 32.8
22:20 1012 29.88 841 24.83 20 68 26 -0.1 31.8
22:25 1012 29.88 841 24.83 20.1 68.3 26 0.4 32.7
22:30 1012 29.88 841 24.83 20.2 68.4 30 2.3 36.2
22:35 1012 29.88 841 24.83 20.4 68.7 25 -0 31.9
22:40 1012 29.88 841 24.83 20.5 69 25 0.1 32.1
22:45 1012 29.88 841 24.83 20.7 69.2 24 -0.6 30.9
22:50 1012 29.88 841 24.83 20.8 69.5 24 -0.5 31.2
22:55 1012 29.88 841 24.83 20.9 69.7 23 -1 30.2
23:00 1012 29.88 841 24.83 21.1 70 22 -1 30.2
23:05 1012 29.88 841 24.83 21.3 70.3 22 -0.9 30.3
23:10 1012 29.88 841 24.83 21.2 70.2 23 -0.9 30.5
23:15 1012 29.88 841 24.83 21.2 70.1 22 -1 30.2
23:20 1012 29.88 841 24.83 21.8 71.2 23 0.2 32.3
23:25 1012 29.88 841 24.83 22.8 73 19 -1.8 28.8
23:30 1012 29.88 841 24.83 24.3 75.7 17 -1.7 28.9
23:35 1012 29.88 841 24.83 24.9 76.7 17 -1.3 29.6
23:40 1011 29.85 841 24.83 25.1 77.1 16 -1.9 28.5
23:45 1011 29.85 841 24.83 25.3 77.6 16 -1.9 28.7
23:50 1011 29.85 841 24.83 25.4 77.8 17 -1.4 29.5
23:55 1011 29.85 841 24.83 25.3 77.6 17 -1 30.2
24:00 1011 29.85 841 24.83 25 77 17 -1.2 29.9